createdAt,value
2022-12-13T00:05:01.462Z,1.70
2022-12-13T00:10:04.326Z,1.70
2022-12-13T00:15:07.733Z,1.60
2022-12-13T00:20:10.480Z,1.90
2022-12-13T00:25:12.564Z,1.70
2022-12-13T00:30:14.517Z,1.60
2022-12-13T00:35:16.513Z,1.70
2022-12-13T00:40:18.455Z,1.50
2022-12-13T00:45:20.218Z,1.80
2022-12-13T00:50:21.949Z,1.80
2022-12-13T00:55:23.656Z,2.20
2022-12-13T01:00:25.768Z,2.20
2022-12-13T01:06:04.213Z,2.10
2022-12-13T01:10:49.464Z,2.00
2022-12-13T01:15:51.145Z,1.90
2022-12-13T01:21:01.899Z,1.80
2022-12-13T01:26:05.327Z,1.70
2022-12-13T01:31:09.857Z,1.60
2022-12-13T01:36:15.254Z,1.60
2022-12-13T01:41:20.122Z,1.50
2022-12-13T01:46:35.048Z,1.60
2022-12-13T01:51:47.017Z,1.60
2022-12-13T01:56:54.209Z,1.60
2022-12-13T02:02:03.736Z,1.70
2022-12-13T02:07:06.891Z,1.50
2022-12-13T02:12:08.854Z,1.60
2022-12-13T02:17:46.042Z,1.60
2022-12-13T02:23:05.775Z,1.60
2022-12-13T02:28:31.559Z,1.30
2022-12-13T02:34:04.441Z,1.40
2022-12-13T02:39:30.545Z,1.40
2022-12-13T02:44:46.833Z,1.50
2022-12-13T02:49:54.037Z,1.40
2022-12-13T02:55:36.279Z,1.40
2022-12-13T03:00:52.963Z,1.60
2022-12-13T03:06:33.895Z,1.70
2022-12-13T03:12:14.866Z,1.60
2022-12-13T03:17:18.659Z,1.20
2022-12-13T03:22:20.902Z,1.20
2022-12-13T03:27:22.682Z,1.30
2022-12-13T03:32:24.448Z,1.40
2022-12-13T03:37:26.260Z,1.50
2022-12-13T03:42:28.621Z,1.40
2022-12-13T03:47:30.369Z,1.40
2022-12-13T03:52:32.077Z,1.40
2022-12-13T03:57:33.862Z,1.30
2022-12-13T04:02:35.706Z,1.30
2022-12-13T04:07:37.494Z,1.10
2022-12-13T04:12:39.433Z,1.10
2022-12-13T04:17:41.198Z,1.10
2022-12-13T04:22:43.087Z,1.20
2022-12-13T04:27:45.679Z,1.20
2022-12-13T04:32:47.356Z,1.30
2022-12-13T04:37:49.059Z,1.50
2022-12-13T04:42:54.437Z,1.70
2022-12-13T04:47:56.403Z,1.70
2022-12-13T04:52:58.133Z,1.70
2022-12-13T04:57:59.860Z,1.60
2022-12-13T05:03:01.574Z,1.60
2022-12-13T05:08:03.489Z,1.40
2022-12-13T05:13:06.370Z,1.50
2022-12-13T05:18:09.459Z,1.80
2022-12-13T05:23:12.166Z,1.90
2022-12-13T05:28:27.893Z,2.00
2022-12-13T05:33:30.574Z,1.90
2022-12-13T05:38:32.426Z,1.80
2022-12-13T05:43:42.308Z,1.70
2022-12-13T05:48:45.421Z,1.90
2022-12-13T05:53:51.651Z,2.20
2022-12-13T05:58:55.047Z,2.20
2022-12-13T06:03:56.900Z,2.30
2022-12-13T06:08:59.705Z,2.10
2022-12-13T06:14:01.595Z,2.10
2022-12-13T06:19:04.807Z,2.20
2022-12-13T06:24:06.834Z,2.10
2022-12-13T06:29:08.680Z,2.30
2022-12-13T06:34:14.191Z,2.50
2022-12-13T06:39:17.456Z,2.40
2022-12-13T06:44:19.167Z,2.40
2022-12-13T06:49:20.875Z,2.20
2022-12-13T06:54:24.001Z,2.30
2022-12-13T06:59:25.773Z,2.60
2022-12-13T07:04:29.482Z,2.40
2022-12-13T07:09:33.597Z,2.70
2022-12-13T07:14:40.691Z,2.60
2022-12-13T07:19:43.600Z,2.60
2022-12-13T07:24:45.630Z,2.60
2022-12-13T07:29:47.426Z,2.70
2022-12-13T07:34:49.164Z,2.70
2022-12-13T07:39:50.901Z,2.70
2022-12-13T07:44:52.657Z,2.50
2022-12-13T07:49:54.386Z,2.50
2022-12-13T07:54:56.106Z,2.40
2022-12-13T07:59:57.939Z,2.50
2022-12-13T08:04:59.744Z,2.60
2022-12-13T08:10:21.392Z,2.40
2022-12-13T08:15:24.591Z,2.40
2022-12-13T08:20:26.379Z,2.20
2022-12-13T08:25:28.138Z,2.30
2022-12-13T08:30:31.841Z,2.20
2022-12-13T08:35:34.572Z,2.00
2022-12-13T08:40:36.954Z,2.00
2022-12-13T08:45:38.749Z,2.20
2022-12-13T08:50:40.496Z,2.30
2022-12-13T08:55:42.214Z,2.30
2022-12-13T09:00:43.996Z,2.40
2022-12-13T09:05:45.786Z,2.20
2022-12-13T09:10:56.667Z,2.40
2022-12-13T09:16:23.064Z,2.40
2022-12-13T09:21:31.321Z,2.40
2022-12-13T09:26:38.351Z,2.40
2022-12-13T09:31:40.774Z,2.50
2022-12-13T09:36:42.960Z,2.40
2022-12-13T09:41:49.383Z,2.40
2022-12-13T09:46:53.597Z,2.20
2022-12-13T09:52:10.970Z,2.30
2022-12-13T09:57:30.680Z,2.30
2022-12-13T10:02:56.776Z,2.30
2022-12-13T10:08:03.932Z,2.20
2022-12-13T10:13:39.414Z,2.40
2022-12-13T10:18:42.722Z,2.50
2022-12-13T10:24:22.869Z,2.50
2022-12-13T10:29:07.235Z,2.50
2022-12-13T10:34:25.178Z,2.50
2022-12-13T10:39:42.390Z,2.60
2022-12-13T10:44:44.585Z,2.50
2022-12-13T10:49:59.514Z,2.70
2022-12-13T10:55:26.192Z,2.80
2022-12-13T11:00:40.660Z,2.90
2022-12-13T11:05:42.484Z,2.80
2022-12-13T11:10:44.430Z,2.90
2022-12-13T11:15:46.324Z,2.70
2022-12-13T11:21:00.290Z,2.80
2022-12-13T11:26:11.122Z,2.70
2022-12-13T11:31:35.267Z,2.60
2022-12-13T11:36:52.657Z,2.80
2022-12-13T11:42:05.293Z,2.90
2022-12-13T11:47:17.971Z,2.70
2022-12-13T11:52:30.466Z,2.60
2022-12-13T11:57:44.287Z,2.70
2022-12-13T12:02:52.063Z,2.60
2022-12-13T12:08:31.701Z,2.70
2022-12-13T12:13:50.325Z,2.90
2022-12-13T12:18:53.703Z,2.80
2022-12-13T12:24:26.001Z,2.90
2022-12-13T12:29:56.563Z,2.80
2022-12-13T12:35:16.607Z,2.90
2022-12-13T12:41:15.745Z,2.90
2022-12-13T12:46:58.939Z,2.80
2022-12-13T12:52:00.506Z,2.90
2022-12-13T12:57:15.751Z,3.00
2022-12-13T13:02:27.152Z,3.00
2022-12-13T13:07:51.510Z,2.80
2022-12-13T13:13:11.432Z,2.80
2022-12-13T13:18:47.194Z,3.00
2022-12-13T13:24:09.539Z,3.00
2022-12-13T13:29:27.511Z,2.90
2022-12-13T13:34:41.066Z,2.70
2022-12-13T13:40:00.653Z,2.80
2022-12-13T13:45:24.466Z,2.80
2022-12-13T13:50:37.625Z,2.90
2022-12-13T13:55:42.451Z,2.90
2022-12-13T14:01:08.973Z,3.10
2022-12-13T14:06:29.129Z,3.00
2022-12-13T14:11:55.529Z,3.10
2022-12-13T14:17:18.843Z,3.00
2022-12-13T14:22:25.007Z,3.00
2022-12-13T14:27:35.303Z,3.00
2022-12-13T14:32:39.115Z,3.10
2022-12-13T14:37:41.077Z,3.00
2022-12-13T14:42:48.030Z,3.10
2022-12-13T14:47:50.417Z,2.90
2022-12-13T14:52:52.391Z,2.90
2022-12-13T14:57:56.044Z,2.90
2022-12-13T15:03:01.389Z,2.90
2022-12-13T15:08:10.891Z,3.00
2022-12-13T15:13:35.334Z,2.90
2022-12-13T15:18:37.577Z,2.90
2022-12-13T15:23:49.145Z,3.00
2022-12-13T15:28:56.613Z,2.90
2022-12-13T15:34:28.775Z,2.90
2022-12-13T15:39:37.670Z,2.80
2022-12-13T15:44:47.924Z,2.80
2022-12-13T15:49:59.576Z,2.90
2022-12-13T15:55:05.599Z,2.80
2022-12-13T16:00:18.541Z,2.70
2022-12-13T16:05:38.367Z,2.80
2022-12-13T16:10:40.191Z,2.90
2022-12-13T16:15:50.872Z,2.80
2022-12-13T16:20:52.918Z,2.90
2022-12-13T16:25:56.551Z,2.80
2022-12-13T16:31:12.092Z,2.80
2022-12-13T16:36:14.157Z,2.80
2022-12-13T16:41:15.946Z,2.80
2022-12-13T16:47:12.293Z,2.70
2022-12-13T16:51:42.482Z,2.80
2022-12-13T16:56:49.912Z,2.80
2022-12-13T17:01:52.339Z,2.80
2022-12-13T17:06:54.946Z,2.80
2022-12-13T17:11:57.193Z,2.80
2022-12-13T17:16:59.057Z,2.70
2022-12-13T17:22:00.872Z,2.80
2022-12-13T17:27:05.614Z,2.80
2022-12-13T17:32:07.456Z,2.70
2022-12-13T17:37:10.731Z,2.70
2022-12-13T17:42:12.683Z,2.80
2022-12-13T17:47:14.725Z,2.80
2022-12-13T17:52:16.432Z,2.90
2022-12-13T17:57:18.157Z,2.90
2022-12-13T18:02:19.972Z,2.90
2022-12-13T18:07:21.705Z,3.00
2022-12-13T18:12:23.419Z,2.70
2022-12-13T18:17:46.659Z,2.80
2022-12-13T18:22:51.358Z,2.80
2022-12-13T18:28:00.584Z,2.80
2022-12-13T18:33:03.447Z,2.80
2022-12-13T18:38:05.150Z,2.60
2022-12-13T18:43:06.974Z,2.50
2022-12-13T18:48:08.735Z,2.60
2022-12-13T18:53:10.456Z,2.70
2022-12-13T18:58:12.134Z,2.80
2022-12-13T19:03:15.063Z,2.80
2022-12-13T19:08:16.887Z,2.90
2022-12-13T19:13:18.692Z,2.90
2022-12-13T19:18:20.481Z,2.80
2022-12-13T19:23:22.242Z,2.80
2022-12-13T19:28:24.068Z,2.80
2022-12-13T19:33:26.098Z,2.70
2022-12-13T19:38:28.112Z,2.70
2022-12-13T19:43:31.704Z,2.80
2022-12-13T19:48:33.935Z,2.60
2022-12-13T19:53:37.054Z,2.70
2022-12-13T19:58:39.449Z,2.90
2022-12-13T20:03:43.404Z,2.90
2022-12-13T20:08:45.625Z,2.70
2022-12-13T20:13:48.735Z,2.80
2022-12-13T20:18:58.344Z,2.80
2022-12-13T20:24:00.082Z,2.80
2022-12-13T20:29:01.917Z,3.00
2022-12-13T20:34:06.035Z,2.80
2022-12-13T20:39:08.945Z,2.70
2022-12-13T20:44:12.440Z,2.80
2022-12-13T20:49:14.238Z,2.80
2022-12-13T20:54:15.956Z,2.90
2022-12-13T20:59:17.795Z,2.80
2022-12-13T21:04:19.497Z,2.80
2022-12-13T21:09:21.301Z,2.90
2022-12-13T21:14:27.890Z,2.90
2022-12-13T21:19:37.462Z,2.90
2022-12-13T21:24:40.996Z,2.90
2022-12-13T21:29:42.678Z,2.90
2022-12-13T21:34:44.482Z,2.80
2022-12-13T21:39:46.195Z,2.80
2022-12-13T21:44:47.898Z,2.90
2022-12-13T21:49:52.668Z,2.90
2022-12-13T21:55:15.146Z,2.90
2022-12-13T22:00:16.377Z,2.90
2022-12-13T22:05:18.251Z,2.90
2022-12-13T22:10:19.979Z,3.00
2022-12-13T22:15:22.826Z,3.00
2022-12-13T22:20:24.804Z,3.00
2022-12-13T22:25:26.541Z,3.00
2022-12-13T22:30:28.264Z,3.00
2022-12-13T22:35:30.061Z,3.10
2022-12-13T22:40:31.790Z,3.10
2022-12-13T22:45:33.604Z,3.10
2022-12-13T22:50:35.398Z,3.10
2022-12-13T22:55:37.170Z,3.00
2022-12-13T23:00:38.957Z,3.10
2022-12-13T23:05:40.767Z,3.00
2022-12-13T23:10:42.505Z,3.10
2022-12-13T23:15:49.122Z,3.10
2022-12-13T23:20:51.262Z,3.10
2022-12-13T23:25:54.909Z,3.10
2022-12-13T23:31:01.173Z,3.10
2022-12-13T23:36:09.556Z,3.10
2022-12-13T23:41:23.289Z,3.00
2022-12-13T23:46:30.956Z,2.90
2022-12-13T23:51:33.760Z,2.90
2022-12-13T23:56:35.459Z,2.90
